Terminal Aerodrome Forecast
Issued by NWS

Home | Current Version | Previous Version | Text Only | Print | Product List | Glossary On
Versions: 1 2 3 4 5 6 7 8 9 10 11 12 13 14 15 16 17 18 19 20 21 22 23 24 25
000
FTUS44 KBMX 230520
TAFEET
TAF
KEET 230520Z 2306/2406 00000KT 6SM BR SCT250
      TEMPO 2309/2313 3SM BR
     FM231500 22003KT P6SM BKN250
     FM231800 21006KT P6SM VCTS BKN050CB=

USA.gov is the U.S. government's official web portal to all federal, state and local government web resources and services.